In Rescue
 
Open Full Screen Window  High Contrast Mode
Wind Gusting 32 knots
19
May 19, 2019 2:00 PM EDT
Weather Information
Wind Direction
  230 °
Wind Speed
  19 kt (22 mph)
Wind Gust
  32 kt (37 mph)
Altimeter
29.84 in
Visibility
10 SM
Temperature
26° C
79° F
Dewpoint
12° C
54° F
Humidity
42%
1hr Rain Fall
00.00 in.
24hr Rain Fall
00.22 in.
Sky Condition
Scattered @ 10,000 ft
Scattered @ 7,500 ft
VFR

METAR KMRT 191800Z AUTO 23019G32KT 10SM SCT075 SCT100 26/12 A2984 RMK AO2 T02620119

FAA Disclaimer: The data displayed is for advisory purposes only and is not to be used for flight planning or operations.